sensor_id;sensor_type;location;lat;lon;timestamp;temperature;humidity
5286;DHT22;2665;53.112;7.358;2023-06-24T09:11:30;24.50;1.00
5286;DHT22;2665;53.112;7.358;2023-06-24T09:13:58;24.40;1.00
5286;DHT22;2665;53.112;7.358;2023-06-24T09:16:25;24.40;1.00
5286;DHT22;2665;53.112;7.358;2023-06-24T09:18:52;24.60;1.00
5286;DHT22;2665;53.112;7.358;2023-06-24T09:21:24;24.60;1.00
5286;DHT22;2665;53.112;7.358;2023-06-24T09:23:55;24.70;1.00
5286;DHT22;2665;53.112;7.358;2023-06-24T09:26:23;24.70;1.00
5286;DHT22;2665;53.112;7.358;2023-06-24T09:28:49;24.90;1.00
5286;DHT22;2665;53.112;7.358;2023-06-24T09:31:15;25.00;1.00
5286;DHT22;2665;53.112;7.358;2023-06-24T09:33:41;25.00;1.00
5286;DHT22;2665;53.112;7.358;2023-06-24T09:36:06;25.00;1.00
5286;DHT22;2665;53.112;7.358;2023-06-24T09:38:37;25.00;1.00
5286;DHT22;2665;53.112;7.358;2023-06-24T09:41:04;25.10;1.00
5286;DHT22;2665;53.112;7.358;2023-06-24T09:43:37;25.20;1.00
5286;DHT22;2665;53.112;7.358;2023-06-24T09:46:05;25.20;1.00
5286;DHT22;2665;53.112;7.358;2023-06-24T09:48:30;25.20;1.00
5286;DHT22;2665;53.112;7.358;2023-06-24T09:51:01;25.10;1.00
5286;DHT22;2665;53.112;7.358;2023-06-24T09:53:33;25.20;1.00
5286;DHT22;2665;53.112;7.358;2023-06-24T09:56:00;25.20;1.00
5286;DHT22;2665;53.112;7.358;2023-06-24T09:58:32;25.30;1.00
5286;DHT22;2665;53.112;7.358;2023-06-24T10:01:04;25.50;1.00
5286;DHT22;2665;53.112;7.358;2023-06-24T10:03:33;25.50;1.00
5286;DHT22;2665;53.112;7.358;2023-06-24T10:06:01;25.40;1.00
5286;DHT22;2665;53.112;7.358;2023-06-24T10:08:28;25.40;1.00
5286;DHT22;2665;53.112;7.358;2023-06-24T10:10:54;25.50;1.00
5286;DHT22;2665;53.112;7.358;2023-06-24T10:13:19;25.60;1.00
5286;DHT22;2665;53.112;7.358;2023-06-24T10:15:46;25.70;1.00
5286;DHT22;2665;53.112;7.358;2023-06-24T10:18:47;25.80;1.00
5286;DHT22;2665;53.112;7.358;2023-06-24T10:21:15;25.80;1.00
5286;DHT22;2665;53.112;7.358;2023-06-24T10:26:28;25.90;1.00
5286;DHT22;2665;53.112;7.358;2023-06-24T10:37:31;26.30;1.00
5286;DHT22;2665;53.112;7.358;2023-06-24T10:39:59;26.10;1.00
5286;DHT22;2665;53.112;7.358;2023-06-24T10:42:39;25.90;1.00
5286;DHT22;2665;53.112;7.358;2023-06-24T10:45:15;26.00;1.00
5286;DHT22;2665;53.112;7.358;2023-06-24T10:47:42;26.10;1.00
5286;DHT22;2665;53.112;7.358;2023-06-24T10:50:11;26.20;1.00
5286;DHT22;2665;53.112;7.358;2023-06-24T10:52:41;26.00;1.00
5286;DHT22;2665;53.112;7.358;2023-06-24T10:55:07;26.00;1.00
5286;DHT22;2665;53.112;7.358;2023-06-24T10:57:34;26.00;1.00
5286;DHT22;2665;53.112;7.358;2023-06-24T11:00:01;26.10;1.00
5286;DHT22;2665;53.112;7.358;2023-06-24T11:02:27;26.20;1.00
5286;DHT22;2665;53.112;7.358;2023-06-24T11:05:03;26.30;1.00
5286;DHT22;2665;53.112;7.358;2023-06-24T11:07:31;26.40;1.00
5286;DHT22;2665;53.112;7.358;2023-06-24T11:10:01;26.60;1.00
5286;DHT22;2665;53.112;7.358;2023-06-24T11:12:30;26.60;1.00
5286;DHT22;2665;53.112;7.358;2023-06-24T11:14:57;26.60;1.00
5286;DHT22;2665;53.112;7.358;2023-06-24T11:17:26;26.70;1.00
5286;DHT22;2665;53.112;7.358;2023-06-24T11:19:53;26.90;1.00
5286;DHT22;2665;53.112;7.358;2023-06-24T11:22:19;27.40;1.00
5286;DHT22;2665;53.112;7.358;2023-06-24T11:24:45;28.10;1.00
5286;DHT22;2665;53.112;7.358;2023-06-24T11:27:10;28.30;1.00
5286;DHT22;2665;53.112;7.358;2023-06-24T11:29:36;28.40;1.00
5286;DHT22;2665;53.112;7.358;2023-06-24T11:32:02;28.90;1.00
5286;DHT22;2665;53.112;7.358;2023-06-24T11:34:29;29.10;1.00
5286;DHT22;2665;53.112;7.358;2023-06-24T11:36:54;29.60;1.00
5286;DHT22;2665;53.112;7.358;2023-06-24T11:39:21;29.90;1.00
5286;DHT22;2665;53.112;7.358;2023-06-24T11:41:47;30.30;1.00
5286;DHT22;2665;53.112;7.358;2023-06-24T11:44:13;29.60;1.00
5286;DHT22;2665;53.112;7.358;2023-06-24T11:46:38;28.90;1.00
5286;DHT22;2665;53.112;7.358;2023-06-24T11:49:05;29.40;1.00
5286;DHT22;2665;53.112;7.358;2023-06-24T11:51:32;30.00;1.00
5286;DHT22;2665;53.112;7.358;2023-06-24T11:54:05;30.00;1.00
5286;DHT22;2665;53.112;7.358;2023-06-24T11:56:38;29.60;1.00
5286;DHT22;2665;53.112;7.358;2023-06-24T11:59:21;28.80;1.00
5286;DHT22;2665;53.112;7.358;2023-06-24T12:01:55;29.20;1.00
5286;DHT22;2665;53.112;7.358;2023-06-24T12:04:27;29.70;1.00
5286;DHT22;2665;53.112;7.358;2023-06-24T12:06:52;30.40;1.00
5286;DHT22;2665;53.112;7.358;2023-06-24T12:09:18;31.10;1.00
5286;DHT22;2665;53.112;7.358;2023-06-24T12:11:44;31.50;1.00
5286;DHT22;2665;53.112;7.358;2023-06-24T12:14:10;31.80;1.00
5286;DHT22;2665;53.112;7.358;2023-06-24T12:16:36;31.90;1.00
5286;DHT22;2665;53.112;7.358;2023-06-24T12:19:02;31.90;1.00
5286;DHT22;2665;53.112;7.358;2023-06-24T12:21:27;32.50;1.00
5286;DHT22;2665;53.112;7.358;2023-06-24T12:23:53;32.70;1.00
5286;DHT22;2665;53.112;7.358;2023-06-24T12:26:19;33.10;1.00
5286;DHT22;2665;53.112;7.358;2023-06-24T12:28:44;33.20;1.00
5286;DHT22;2665;53.112;7.358;2023-06-24T12:31:11;33.10;1.00
5286;DHT22;2665;53.112;7.358;2023-06-24T12:33:36;33.00;1.00
5286;DHT22;2665;53.112;7.358;2023-06-24T12:36:02;32.90;1.00
5286;DHT22;2665;53.112;7.358;2023-06-24T12:38:28;32.70;1.00
5286;DHT22;2665;53.112;7.358;2023-06-24T12:40:53;32.10;1.00
5286;DHT22;2665;53.112;7.358;2023-06-24T12:43:19;31.50;1.00
5286;DHT22;2665;53.112;7.358;2023-06-24T12:45:44;32.00;1.00
5286;DHT22;2665;53.112;7.358;2023-06-24T12:48:10;31.40;1.00
5286;DHT22;2665;53.112;7.358;2023-06-24T12:50:36;31.30;1.00
5286;DHT22;2665;53.112;7.358;2023-06-24T12:53:02;31.00;1.00
5286;DHT22;2665;53.112;7.358;2023-06-24T12:55:29;30.90;1.00
5286;DHT22;2665;53.112;7.358;2023-06-24T12:57:54;30.20;1.00
5286;DHT22;2665;53.112;7.358;2023-06-24T13:00:21;29.60;1.00
5286;DHT22;2665;53.112;7.358;2023-06-24T13:02:47;29.80;1.00
5286;DHT22;2665;53.112;7.358;2023-06-24T13:05:13;30.40;1.00
5286;DHT22;2665;53.112;7.358;2023-06-24T13:07:39;31.10;1.00
5286;DHT22;2665;53.112;7.358;2023-06-24T13:10:05;31.10;1.00
5286;DHT22;2665;53.112;7.358;2023-06-24T13:12:34;31.90;1.00
5286;DHT22;2665;53.112;7.358;2023-06-24T13:15:00;32.10;1.00
5286;DHT22;2665;53.112;7.358;2023-06-24T13:17:26;32.00;1.00
5286;DHT22;2665;53.112;7.358;2023-06-24T13:19:52;32.30;1.00
5286;DHT22;2665;53.112;7.358;2023-06-24T13:22:17;33.00;1.00
5286;DHT22;2665;53.112;7.358;2023-06-24T13:24:44;33.20;1.00
5286;DHT22;2665;53.112;7.358;2023-06-24T13:27:10;32.80;1.00
5286;DHT22;2665;53.112;7.358;2023-06-24T13:29:35;32.40;1.00
5286;DHT22;2665;53.112;7.358;2023-06-24T13:32:01;32.00;1.00
5286;DHT22;2665;53.112;7.358;2023-06-24T13:34:27;31.50;1.00
5286;DHT22;2665;53.112;7.358;2023-06-24T13:36:52;31.40;1.00
5286;DHT22;2665;53.112;7.358;2023-06-24T13:39:18;31.80;1.00
5286;DHT22;2665;53.112;7.358;2023-06-24T13:41:47;32.10;1.00
5286;DHT22;2665;53.112;7.358;2023-06-24T13:44:13;31.80;1.00
5286;DHT22;2665;53.112;7.358;2023-06-24T13:46:38;31.20;1.00
5286;DHT22;2665;53.112;7.358;2023-06-24T13:49:04;30.60;1.00
5286;DHT22;2665;53.112;7.358;2023-06-24T13:51:30;30.20;1.00
5286;DHT22;2665;53.112;7.358;2023-06-24T13:53:56;29.90;1.00
5286;DHT22;2665;53.112;7.358;2023-06-24T13:56:23;29.90;1.00
5286;DHT22;2665;53.112;7.358;2023-06-24T14:01:15;29.20;1.00
5286;DHT22;2665;53.112;7.358;2023-06-24T14:03:41;29.00;1.00
5286;DHT22;2665;53.112;7.358;2023-06-24T14:06:07;28.70;1.00
5286;DHT22;2665;53.112;7.358;2023-06-24T14:08:33;28.40;1.00
5286;DHT22;2665;53.112;7.358;2023-06-24T14:11:00;28.10;1.00
5286;DHT22;2665;53.112;7.358;2023-06-24T14:13:26;27.90;1.00
5286;DHT22;2665;53.112;7.358;2023-06-24T14:15:53;27.80;1.00
5286;DHT22;2665;53.112;7.358;2023-06-24T14:18:19;27.70;1.00
5286;DHT22;2665;53.112;7.358;2023-06-24T14:20:45;27.60;1.00
5286;DHT22;2665;53.112;7.358;2023-06-24T14:23:11;27.50;1.00
5286;DHT22;2665;53.112;7.358;2023-06-24T14:25:37;27.50;1.00
5286;DHT22;2665;53.112;7.358;2023-06-24T14:28:04;27.30;1.00
5286;DHT22;2665;53.112;7.358;2023-06-24T14:30:30;27.20;1.00
5286;DHT22;2665;53.112;7.358;2023-06-24T14:32:55;27.10;1.00
5286;DHT22;2665;53.112;7.358;2023-06-24T14:35:21;27.00;1.00
5286;DHT22;2665;53.112;7.358;2023-06-24T14:37:47;26.90;1.00
5286;DHT22;2665;53.112;7.358;2023-06-24T14:40:12;26.70;1.00
5286;DHT22;2665;53.112;7.358;2023-06-24T14:42:38;26.60;1.00
5286;DHT22;2665;53.112;7.358;2023-06-24T14:45:04;26.50;1.00
5286;DHT22;2665;53.112;7.358;2023-06-24T14:47:29;26.30;1.00
5286;DHT22;2665;53.112;7.358;2023-06-24T14:49:55;26.20;1.00
5286;DHT22;2665;53.112;7.358;2023-06-24T14:52:21;26.10;1.00
5286;DHT22;2665;53.112;7.358;2023-06-24T14:54:47;26.00;1.00
5286;DHT22;2665;53.112;7.358;2023-06-24T14:57:12;26.00;1.00
5286;DHT22;2665;53.112;7.358;2023-06-24T14:59:38;26.00;1.00
5286;DHT22;2665;53.112;7.358;2023-06-24T15:02:04;26.00;1.00
5286;DHT22;2665;53.112;7.358;2023-06-24T15:04:30;26.00;1.00
5286;DHT22;2665;53.112;7.358;2023-06-24T15:06:56;26.00;1.00
5286;DHT22;2665;53.112;7.358;2023-06-24T15:09:22;26.00;1.00
5286;DHT22;2665;53.112;7.358;2023-06-24T15:11:48;26.10;1.00
5286;DHT22;2665;53.112;7.358;2023-06-24T15:14:14;26.10;1.00
5286;DHT22;2665;53.112;7.358;2023-06-24T15:16:39;26.20;1.00
5286;DHT22;2665;53.112;7.358;2023-06-24T15:19:05;26.20;1.00
5286;DHT22;2665;53.112;7.358;2023-06-24T15:21:30;26.10;1.00
5286;DHT22;2665;53.112;7.358;2023-06-24T15:23:56;26.10;1.00
5286;DHT22;2665;53.112;7.358;2023-06-24T15:26:22;26.10;1.00
5286;DHT22;2665;53.112;7.358;2023-06-24T15:28:47;26.10;1.00
5286;DHT22;2665;53.112;7.358;2023-06-24T15:31:13;26.20;1.00
5286;DHT22;2665;53.112;7.358;2023-06-24T15:33:39;26.20;1.00
5286;DHT22;2665;53.112;7.358;2023-06-24T15:36:05;26.20;1.00
5286;DHT22;2665;53.112;7.358;2023-06-24T15:38:30;26.20;1.00
5286;DHT22;2665;53.112;7.358;2023-06-24T15:40:56;26.20;1.00
5286;DHT22;2665;53.112;7.358;2023-06-24T15:43:22;26.20;1.00
5286;DHT22;2665;53.112;7.358;2023-06-24T15:45:47;26.30;1.00
5286;DHT22;2665;53.112;7.358;2023-06-24T15:48:13;26.30;1.00
5286;DHT22;2665;53.112;7.358;2023-06-24T15:50:39;26.30;1.00
5286;DHT22;2665;53.112;7.358;2023-06-24T15:53:05;26.20;1.00
5286;DHT22;2665;53.112;7.358;2023-06-24T15:55:31;26.10;1.00
5286;DHT22;2665;53.112;7.358;2023-06-24T15:57:56;26.10;1.00
5286;DHT22;2665;53.112;7.358;2023-06-24T16:00:22;26.10;1.00
5286;DHT22;2665;53.112;7.358;2023-06-24T16:02:48;26.10;1.00
5286;DHT22;2665;53.112;7.358;2023-06-24T16:05:13;26.00;1.00
5286;DHT22;2665;53.112;7.358;2023-06-24T16:07:39;26.00;1.00
5286;DHT22;2665;53.112;7.358;2023-06-24T16:10:05;26.00;1.00
5286;DHT22;2665;53.112;7.358;2023-06-24T16:12:31;26.00;1.00
5286;DHT22;2665;53.112;7.358;2023-06-24T16:14:57;26.00;1.00
5286;DHT22;2665;53.112;7.358;2023-06-24T16:17:22;25.90;1.00
5286;DHT22;2665;53.112;7.358;2023-06-24T16:19:48;25.80;1.00
5286;DHT22;2665;53.112;7.358;2023-06-24T16:22:13;25.70;1.00
5286;DHT22;2665;53.112;7.358;2023-06-24T16:24:39;25.70;1.00
5286;DHT22;2665;53.112;7.358;2023-06-24T16:27:05;25.60;1.00
5286;DHT22;2665;53.112;7.358;2023-06-24T16:29:30;25.60;1.00
5286;DHT22;2665;53.112;7.358;2023-06-24T16:31:56;25.60;1.00
5286;DHT22;2665;53.112;7.358;2023-06-24T16:34:22;25.60;1.00
5286;DHT22;2665;53.112;7.358;2023-06-24T16:36:47;25.60;1.00
5286;DHT22;2665;53.112;7.358;2023-06-24T16:39:13;25.60;1.00
5286;DHT22;2665;53.112;7.358;2023-06-24T16:41:39;25.70;1.00
5286;DHT22;2665;53.112;7.358;2023-06-24T16:44:04;25.70;1.00
5286;DHT22;2665;53.112;7.358;2023-06-24T16:46:30;25.70;1.00
5286;DHT22;2665;53.112;7.358;2023-06-24T16:48:57;25.70;1.00
5286;DHT22;2665;53.112;7.358;2023-06-24T16:51:24;25.60;1.00
5286;DHT22;2665;53.112;7.358;2023-06-24T16:53:50;25.60;1.00
5286;DHT22;2665;53.112;7.358;2023-06-24T16:56:15;25.70;1.00
5286;DHT22;2665;53.112;7.358;2023-06-24T16:58:41;25.70;1.00
5286;DHT22;2665;53.112;7.358;2023-06-24T17:01:06;25.80;1.00
5286;DHT22;2665;53.112;7.358;2023-06-24T17:03:32;25.80;1.00
5286;DHT22;2665;53.112;7.358;2023-06-24T17:05:58;25.80;1.00
5286;DHT22;2665;53.112;7.358;2023-06-24T17:08:23;25.80;1.00
5286;DHT22;2665;53.112;7.358;2023-06-24T17:10:49;25.80;1.00
5286;DHT22;2665;53.112;7.358;2023-06-24T17:13:14;25.70;1.00
5286;DHT22;2665;53.112;7.358;2023-06-24T17:15:40;25.70;1.00
5286;DHT22;2665;53.112;7.358;2023-06-24T17:18:06;25.70;1.00
5286;DHT22;2665;53.112;7.358;2023-06-24T17:20:31;26.00;1.00
5286;DHT22;2665;53.112;7.358;2023-06-24T17:22:57;26.50;1.00
5286;DHT22;2665;53.112;7.358;2023-06-24T17:25:22;27.30;1.00
5286;DHT22;2665;53.112;7.358;2023-06-24T17:27:48;28.30;1.00
5286;DHT22;2665;53.112;7.358;2023-06-24T17:30:14;28.60;1.00
5286;DHT22;2665;53.112;7.358;2023-06-24T17:32:40;28.20;1.00
5286;DHT22;2665;53.112;7.358;2023-06-24T17:35:07;28.20;1.00
5286;DHT22;2665;53.112;7.358;2023-06-24T17:37:33;28.40;1.00
5286;DHT22;2665;53.112;7.358;2023-06-24T17:39:59;28.70;1.00
5286;DHT22;2665;53.112;7.358;2023-06-24T17:42:24;28.80;1.00
5286;DHT22;2665;53.112;7.358;2023-06-24T17:44:50;28.90;1.00
5286;DHT22;2665;53.112;7.358;2023-06-24T17:47:16;28.90;1.00
5286;DHT22;2665;53.112;7.358;2023-06-24T17:49:42;28.90;1.00
5286;DHT22;2665;53.112;7.358;2023-06-24T17:52:07;29.00;1.00
5286;DHT22;2665;53.112;7.358;2023-06-24T17:54:33;29.10;1.00
5286;DHT22;2665;53.112;7.358;2023-06-24T17:56:59;29.00;1.00
5286;DHT22;2665;53.112;7.358;2023-06-24T17:59:24;28.90;1.00
5286;DHT22;2665;53.112;7.358;2023-06-24T18:01:50;28.80;1.00
5286;DHT22;2665;53.112;7.358;2023-06-24T18:04:16;28.80;1.00
5286;DHT22;2665;53.112;7.358;2023-06-24T18:06:41;28.80;1.00
5286;DHT22;2665;53.112;7.358;2023-06-24T18:09:07;28.70;1.00
5286;DHT22;2665;53.112;7.358;2023-06-24T18:11:33;28.60;1.00
5286;DHT22;2665;53.112;7.358;2023-06-24T18:13:59;28.50;1.00
5286;DHT22;2665;53.112;7.358;2023-06-24T18:16:25;28.40;1.00
5286;DHT22;2665;53.112;7.358;2023-06-24T18:18:50;28.40;1.00
5286;DHT22;2665;53.112;7.358;2023-06-24T18:21:16;28.10;1.00
5286;DHT22;2665;53.112;7.358;2023-06-24T18:23:42;28.00;1.00
5286;DHT22;2665;53.112;7.358;2023-06-24T18:26:10;28.00;1.00
5286;DHT22;2665;53.112;7.358;2023-06-24T18:28:38;28.00;1.00
5286;DHT22;2665;53.112;7.358;2023-06-24T18:31:03;27.90;1.00
5286;DHT22;2665;53.112;7.358;2023-06-24T18:33:29;27.80;1.00
5286;DHT22;2665;53.112;7.358;2023-06-24T18:35:55;27.60;1.00
5286;DHT22;2665;53.112;7.358;2023-06-24T18:38:20;27.40;1.00
5286;DHT22;2665;53.112;7.358;2023-06-24T18:40:46;27.20;1.00
5286;DHT22;2665;53.112;7.358;2023-06-24T18:43:12;26.90;1.00
5286;DHT22;2665;53.112;7.358;2023-06-24T18:48:03;26.00;1.00
5286;DHT22;2665;53.112;7.358;2023-06-24T18:50:29;25.80;1.00
5286;DHT22;2665;53.112;7.358;2023-06-24T18:52:55;25.40;1.00
5286;DHT22;2665;53.112;7.358;2023-06-24T18:55:20;25.20;1.00
5286;DHT22;2665;53.112;7.358;2023-06-24T18:57:46;25.10;1.00
5286;DHT22;2665;53.112;7.358;2023-06-24T19:00:12;24.90;1.00
5286;DHT22;2665;53.112;7.358;2023-06-24T19:02:38;24.70;1.00
5286;DHT22;2665;53.112;7.358;2023-06-24T19:05:04;24.50;1.00
5286;DHT22;2665;53.112;7.358;2023-06-24T19:07:29;24.20;1.00
5286;DHT22;2665;53.112;7.358;2023-06-24T19:09:55;24.00;1.00
5286;DHT22;2665;53.112;7.358;2023-06-24T19:12:21;23.90;1.00
5286;DHT22;2665;53.112;7.358;2023-06-24T19:14:46;23.80;1.00
5286;DHT22;2665;53.112;7.358;2023-06-24T19:17:12;23.60;1.00
5286;DHT22;2665;53.112;7.358;2023-06-24T19:19:37;23.40;1.00
5286;DHT22;2665;53.112;7.358;2023-06-24T19:22:03;23.30;1.00
5286;DHT22;2665;53.112;7.358;2023-06-24T19:24:30;23.20;1.00
5286;DHT22;2665;53.112;7.358;2023-06-24T19:26:57;23.00;1.00
5286;DHT22;2665;53.112;7.358;2023-06-24T19:29:22;22.80;1.00
5286;DHT22;2665;53.112;7.358;2023-06-24T19:31:48;22.70;1.00
5286;DHT22;2665;53.112;7.358;2023-06-24T19:34:14;22.50;1.00
5286;DHT22;2665;53.112;7.358;2023-06-24T19:36:39;22.40;1.00
5286;DHT22;2665;53.112;7.358;2023-06-24T19:39:05;22.30;1.00
5286;DHT22;2665;53.112;7.358;2023-06-24T19:41:31;22.10;1.00
5286;DHT22;2665;53.112;7.358;2023-06-24T19:44:06;22.00;1.00
5286;DHT22;2665;53.112;7.358;2023-06-24T19:46:34;21.90;1.00
5286;DHT22;2665;53.112;7.358;2023-06-24T19:48:59;21.80;1.00
5286;DHT22;2665;53.112;7.358;2023-06-24T19:51:27;21.70;1.00
5286;DHT22;2665;53.112;7.358;2023-06-24T19:53:54;21.70;1.00
5286;DHT22;2665;53.112;7.358;2023-06-24T19:56:20;21.60;1.00
5286;DHT22;2665;53.112;7.358;2023-06-24T19:58:45;21.40;1.00
5286;DHT22;2665;53.112;7.358;2023-06-24T20:01:11;21.30;1.00
5286;DHT22;2665;53.112;7.358;2023-06-24T20:03:37;21.20;1.00
5286;DHT22;2665;53.112;7.358;2023-06-24T20:06:02;21.10;1.00
5286;DHT22;2665;53.112;7.358;2023-06-24T20:08:28;21.00;1.00
5286;DHT22;2665;53.112;7.358;2023-06-24T20:10:53;20.90;1.00
5286;DHT22;2665;53.112;7.358;2023-06-24T20:13:19;20.80;1.00
5286;DHT22;2665;53.112;7.358;2023-06-24T20:15:44;20.80;1.00
5286;DHT22;2665;53.112;7.358;2023-06-24T20:18:11;20.70;1.00
5286;DHT22;2665;53.112;7.358;2023-06-24T20:20:37;20.60;1.00
5286;DHT22;2665;53.112;7.358;2023-06-24T20:23:03;20.50;1.00
5286;DHT22;2665;53.112;7.358;2023-06-24T20:25:28;20.40;4.50
5286;DHT22;2665;53.112;7.358;2023-06-24T20:27:54;20.40;9.30
5286;DHT22;2665;53.112;7.358;2023-06-24T20:30:20;20.30;15.10
5286;DHT22;2665;53.112;7.358;2023-06-24T20:32:45;20.30;20.40
5286;DHT22;2665;53.112;7.358;2023-06-24T20:35:11;20.20;26.50
5286;DHT22;2665;53.112;7.358;2023-06-24T20:37:36;20.10;30.00
5286;DHT22;2665;53.112;7.358;2023-06-24T20:40:02;20.10;34.00
5286;DHT22;2665;53.112;7.358;2023-06-24T20:42:28;20.00;35.10
5286;DHT22;2665;53.112;7.358;2023-06-24T20:44:53;20.00;38.80
5286;DHT22;2665;53.112;7.358;2023-06-24T20:47:19;19.90;45.00
5286;DHT22;2665;53.112;7.358;2023-06-24T20:49:45;19.80;50.60
5286;DHT22;2665;53.112;7.358;2023-06-24T20:52:10;19.80;58.30
5286;DHT22;2665;53.112;7.358;2023-06-24T20:54:36;19.70;66.10
5286;DHT22;2665;53.112;7.358;2023-06-24T20:57:02;19.70;76.10
5286;DHT22;2665;53.112;7.358;2023-06-24T20:59:28;19.60;86.00
5286;DHT22;2665;53.112;7.358;2023-06-24T21:01:53;19.60;93.10
5286;DHT22;2665;53.112;7.358;2023-06-24T21:04:19;19.60;99.90
5286;DHT22;2665;53.112;7.358;2023-06-24T21:06:44;19.50;99.90
5286;DHT22;2665;53.112;7.358;2023-06-24T21:09:10;19.60;99.90
5286;DHT22;2665;53.112;7.358;2023-06-24T21:11:36;19.60;99.90
5286;DHT22;2665;53.112;7.358;2023-06-24T21:14:01;19.50;99.90
5286;DHT22;2665;53.112;7.358;2023-06-24T21:16:27;19.50;99.90
5286;DHT22;2665;53.112;7.358;2023-06-24T21:18:53;19.50;99.90
5286;DHT22;2665;53.112;7.358;2023-06-24T21:21:18;19.40;99.90
5286;DHT22;2665;53.112;7.358;2023-06-24T21:23:44;19.40;99.90
5286;DHT22;2665;53.112;7.358;2023-06-24T21:26:10;19.40;99.90
5286;DHT22;2665;53.112;7.358;2023-06-24T21:28:35;19.30;99.90
5286;DHT22;2665;53.112;7.358;2023-06-24T21:31:01;19.30;99.90
5286;DHT22;2665;53.112;7.358;2023-06-24T21:33:26;19.20;99.90
5286;DHT22;2665;53.112;7.358;2023-06-24T21:35:52;19.10;99.90
5286;DHT22;2665;53.112;7.358;2023-06-24T21:38:18;19.10;1.00
5286;DHT22;2665;53.112;7.358;2023-06-24T21:40:43;19.10;1.00
5286;DHT22;2665;53.112;7.358;2023-06-24T21:43:09;19.00;1.00
5286;DHT22;2665;53.112;7.358;2023-06-24T21:45:34;18.90;1.00
5286;DHT22;2665;53.112;7.358;2023-06-24T21:48:00;18.80;1.00
5286;DHT22;2665;53.112;7.358;2023-06-24T21:50:28;18.80;1.00
5286;DHT22;2665;53.112;7.358;2023-06-24T21:52:54;18.70;1.00
5286;DHT22;2665;53.112;7.358;2023-06-24T21:55:19;18.60;1.00
5286;DHT22;2665;53.112;7.358;2023-06-24T21:57:45;18.60;1.00
5286;DHT22;2665;53.112;7.358;2023-06-24T22:00:11;18.50;1.00
5286;DHT22;2665;53.112;7.358;2023-06-24T22:02:43;18.40;1.00
5286;DHT22;2665;53.112;7.358;2023-06-24T22:05:08;18.40;1.00
5286;DHT22;2665;53.112;7.358;2023-06-24T22:07:34;18.30;1.00
5286;DHT22;2665;53.112;7.358;2023-06-24T22:10:00;18.30;59.60
5286;DHT22;2665;53.112;7.358;2023-06-24T22:12:25;18.20;99.90
5286;DHT22;2665;53.112;7.358;2023-06-24T22:14:51;18.20;99.90
5286;DHT22;2665;53.112;7.358;2023-06-24T22:17:17;18.10;99.90
5286;DHT22;2665;53.112;7.358;2023-06-24T22:19:42;18.10;99.90
5286;DHT22;2665;53.112;7.358;2023-06-24T22:22:08;18.00;99.90
5286;DHT22;2665;53.112;7.358;2023-06-24T22:24:34;18.00;99.90
5286;DHT22;2665;53.112;7.358;2023-06-24T22:26:59;18.00;99.90
5286;DHT22;2665;53.112;7.358;2023-06-24T22:29:25;18.00;1.00
5286;DHT22;2665;53.112;7.358;2023-06-24T22:31:50;18.00;1.00
5286;DHT22;2665;53.112;7.358;2023-06-24T22:34:16;18.00;46.90
5286;DHT22;2665;53.112;7.358;2023-06-24T22:36:42;18.00;99.90
5286;DHT22;2665;53.112;7.358;2023-06-24T22:39:07;18.10;99.90
5286;DHT22;2665;53.112;7.358;2023-06-24T22:41:33;18.00;99.90
5286;DHT22;2665;53.112;7.358;2023-06-24T22:43:58;18.00;99.90
5286;DHT22;2665;53.112;7.358;2023-06-24T22:46:24;18.00;99.90
5286;DHT22;2665;53.112;7.358;2023-06-24T22:48:49;18.00;1.00
5286;DHT22;2665;53.112;7.358;2023-06-24T22:51:15;17.90;1.00
5286;DHT22;2665;53.112;7.358;2023-06-24T22:53:41;17.90;1.00
5286;DHT22;2665;53.112;7.358;2023-06-24T22:56:06;17.80;1.00
5286;DHT22;2665;53.112;7.358;2023-06-24T22:58:32;17.80;1.00
